createdAt,value
2022-10-13T00:00:27.589Z,28.43
2022-10-13T00:01:29.478Z,25.81
2022-10-13T00:02:31.274Z,25.65
2022-10-13T00:03:33.098Z,26.11
2022-10-13T00:04:34.905Z,26.36
2022-10-13T00:05:36.719Z,26.13
2022-10-13T00:06:38.581Z,26.03
2022-10-13T00:07:40.512Z,27.47
2022-10-13T00:08:42.320Z,25.34
2022-10-13T00:09:44.139Z,25.11
2022-10-13T00:10:45.962Z,26.57
2022-10-13T00:11:47.865Z,27.09
2022-10-13T00:12:49.693Z,23.22
2022-10-13T00:13:51.518Z,26.14
2022-10-13T00:14:53.331Z,25.75
2022-10-13T00:15:55.154Z,26.81
2022-10-13T00:16:57.034Z,24.82
2022-10-13T00:17:58.869Z,24.96
2022-10-13T00:19:00.680Z,27.35
2022-10-13T00:20:02.502Z,23.79
2022-10-13T00:21:04.331Z,25.99
2022-10-13T00:22:06.207Z,23.83
2022-10-13T00:23:08.018Z,24.03
2022-10-13T00:24:09.830Z,23.51
2022-10-13T00:25:11.651Z,24.73
2022-10-13T00:26:13.581Z,24.31
2022-10-13T00:27:15.421Z,25.24
2022-10-13T00:28:17.318Z,24.50
2022-10-13T00:29:19.104Z,26.87
2022-10-13T00:30:20.931Z,24.16
2022-10-13T00:31:22.756Z,20.66
2022-10-13T00:32:24.735Z,24.59
2022-10-13T00:33:26.543Z,23.55
2022-10-13T00:34:28.374Z,22.34
2022-10-13T00:35:30.186Z,25.78
2022-10-13T00:36:32.013Z,23.25
2022-10-13T00:37:33.867Z,25.79
2022-10-13T00:38:35.690Z,22.57
2022-10-13T00:39:37.516Z,24.82
2022-10-13T00:40:39.324Z,24.67
2022-10-13T00:41:41.143Z,23.31
2022-10-13T00:42:42.998Z,21.87
2022-10-13T00:43:44.907Z,22.75
2022-10-13T00:44:46.716Z,22.09
2022-10-13T00:45:48.536Z,25.43
2022-10-13T00:46:50.347Z,22.46
2022-10-13T00:47:52.216Z,21.83
2022-10-13T00:48:54.044Z,24.85
2022-10-13T00:49:55.863Z,22.71
2022-10-13T00:50:57.686Z,23.65
2022-10-13T00:51:59.499Z,22.69
2022-10-13T00:53:01.362Z,21.99
2022-10-13T00:54:03.191Z,25.15
2022-10-13T00:55:05.014Z,21.39
2022-10-13T00:56:07.434Z,21.67
2022-10-13T00:57:09.257Z,26.05
2022-10-13T00:58:11.117Z,23.49
2022-10-13T00:59:12.973Z,21.99
2022-10-13T01:00:14.963Z,23.14
2022-10-13T01:01:16.811Z,23.69
2022-10-13T01:02:18.731Z,23.35
2022-10-13T01:03:20.732Z,23.34
2022-10-13T01:04:22.539Z,24.23
2022-10-13T01:05:24.376Z,23.37
2022-10-13T01:06:26.201Z,22.89
2022-10-13T01:07:28.037Z,24.74
2022-10-13T01:08:29.884Z,23.47
2022-10-13T01:09:31.709Z,22.45
2022-10-13T01:10:33.646Z,22.88
2022-10-13T01:11:35.478Z,23.72
2022-10-13T01:12:37.280Z,24.11
2022-10-13T01:13:39.128Z,23.41
2022-10-13T01:14:40.989Z,21.25
2022-10-13T01:15:42.819Z,22.53
2022-10-13T01:16:44.660Z,22.89
2022-10-13T01:17:46.477Z,22.59
2022-10-13T01:18:48.329Z,23.31
2022-10-13T01:19:50.163Z,22.95
2022-10-13T01:20:51.976Z,21.95
2022-10-13T01:21:53.807Z,25.69
2022-10-13T01:22:55.623Z,25.06
2022-10-13T01:23:57.468Z,23.71
2022-10-13T01:24:59.289Z,21.81
2022-10-13T01:26:01.216Z,21.48
2022-10-13T01:27:03.054Z,26.29
2022-10-13T01:28:04.934Z,23.81
2022-10-13T01:29:06.798Z,21.13
2022-10-13T01:30:08.755Z,21.66
2022-10-13T01:31:10.585Z,22.26
2022-10-13T01:32:12.412Z,25.29
2022-10-13T01:33:14.252Z,21.37
2022-10-13T01:34:16.154Z,25.35
2022-10-13T01:35:17.976Z,19.69
2022-10-13T01:36:19.791Z,24.37
2022-10-13T01:37:21.614Z,23.53
2022-10-13T01:38:23.456Z,21.12
2022-10-13T01:39:25.385Z,25.08
2022-10-13T01:40:27.201Z,27.23
2022-10-13T01:41:29.025Z,21.53
2022-10-13T01:42:30.840Z,21.50
2022-10-13T01:43:32.664Z,23.10
2022-10-13T01:44:34.516Z,23.88
2022-10-13T01:45:36.398Z,19.99
2022-10-13T01:46:38.230Z,33.09
2022-10-13T01:47:40.069Z,33.08
2022-10-13T01:48:41.893Z,25.88
2022-10-13T01:49:43.745Z,21.46
2022-10-13T01:50:45.658Z,24.37
2022-10-13T01:51:47.481Z,22.77
2022-10-13T01:52:49.305Z,23.30
2022-10-13T01:53:51.124Z,23.58
2022-10-13T01:54:52.969Z,22.05
2022-10-13T01:55:54.781Z,24.24
2022-10-13T01:56:56.608Z,25.84
2022-10-13T01:57:58.431Z,21.69
2022-10-13T01:59:00.261Z,23.33
2022-10-13T02:00:02.145Z,23.13
2022-10-13T02:01:04.029Z,20.92
2022-10-13T02:02:05.797Z,23.03
2022-10-13T02:03:07.597Z,23.46
2022-10-13T02:04:09.395Z,24.88
2022-10-13T02:05:11.212Z,23.70
2022-10-13T02:06:13.308Z,23.65
2022-10-13T02:07:15.105Z,25.24
2022-10-13T02:08:16.902Z,22.21
2022-10-13T02:09:18.701Z,23.53
2022-10-13T02:10:20.546Z,25.59
2022-10-13T02:11:22.343Z,26.61
2022-10-13T02:12:24.061Z,27.22
2022-10-13T02:13:25.846Z,25.57
2022-10-13T02:14:27.649Z,23.93
2022-10-13T02:15:29.487Z,23.83
2022-10-13T02:16:31.407Z,24.81
2022-10-13T02:17:33.175Z,23.46
2022-10-13T02:18:34.976Z,25.16
2022-10-13T02:19:36.672Z,27.51
2022-10-13T02:20:38.503Z,31.63
2022-10-13T02:21:40.318Z,25.15
2022-10-13T02:22:42.013Z,25.62
2022-10-13T02:23:43.810Z,28.36
2022-10-13T02:24:45.600Z,29.33
2022-10-13T02:25:47.419Z,28.53
2022-10-13T02:26:49.225Z,25.74
2022-10-13T02:27:51.038Z,26.86
2022-10-13T02:28:52.860Z,27.71
2022-10-13T02:29:54.620Z,26.89
2022-10-13T02:30:56.457Z,27.81
2022-10-13T02:31:58.302Z,29.30
2022-10-13T02:33:00.088Z,26.61
2022-10-13T02:34:01.878Z,24.44
2022-10-13T02:35:03.671Z,27.90
2022-10-13T02:36:05.559Z,29.02
2022-10-13T02:37:07.327Z,29.25
2022-10-13T02:38:09.118Z,29.80
2022-10-13T02:39:10.933Z,29.41
2022-10-13T02:40:12.746Z,31.08
2022-10-13T02:41:14.567Z,32.92
2022-10-13T02:42:16.386Z,30.76
2022-10-13T02:43:18.184Z,31.62
2022-10-13T02:44:19.974Z,33.45
2022-10-13T02:45:21.778Z,31.19
2022-10-13T02:46:23.613Z,29.71
2022-10-13T02:47:25.509Z,35.04
2022-10-13T02:48:27.301Z,32.62
2022-10-13T02:49:28.999Z,32.59
2022-10-13T02:50:30.802Z,31.08
2022-10-13T02:51:37.540Z,29.95
2022-10-13T02:52:36.262Z,29.73
2022-10-13T02:53:38.048Z,31.83
2022-10-13T02:54:39.848Z,35.37
2022-10-13T02:55:41.643Z,36.35
2022-10-13T02:56:43.478Z,35.53
2022-10-13T02:57:45.279Z,38.72
2022-10-13T02:58:47.076Z,32.44
2022-10-13T02:59:48.874Z,36.85
2022-10-13T03:00:50.727Z,37.61
2022-10-13T03:01:52.611Z,34.35
2022-10-13T03:02:54.499Z,39.33
2022-10-13T03:03:56.600Z,41.62
2022-10-13T03:04:58.402Z,43.27
2022-10-13T03:06:00.289Z,40.02
2022-10-13T03:07:02.033Z,46.12
2022-10-13T03:08:03.829Z,46.15
2022-10-13T03:09:05.634Z,46.64
2022-10-13T03:10:07.737Z,44.27
2022-10-13T03:11:09.527Z,43.41
2022-10-13T03:12:11.360Z,46.25
2022-10-13T03:13:13.173Z,50.03
2022-10-13T03:14:14.971Z,56.85
2022-10-13T03:15:16.785Z,52.43
2022-10-13T03:16:18.573Z,52.73
2022-10-13T03:17:20.401Z,54.46
2022-10-13T03:18:22.261Z,60.56
2022-10-13T03:19:24.042Z,56.97
2022-10-13T03:20:25.847Z,62.21
2022-10-13T03:21:27.638Z,60.06
2022-10-13T03:22:29.488Z,56.73
2022-10-13T03:23:31.297Z,62.08
2022-10-13T03:24:33.088Z,65.28
2022-10-13T03:25:34.882Z,65.47
2022-10-13T03:26:36.687Z,66.89
2022-10-13T03:27:38.533Z,74.57
2022-10-13T03:28:40.407Z,74.06
2022-10-13T03:29:42.138Z,74.39
2022-10-13T03:30:43.930Z,83.07
2022-10-13T03:31:45.737Z,110.93
2022-10-13T03:32:47.574Z,104.81
2022-10-13T03:33:49.436Z,84.27
2022-10-13T03:34:51.241Z,80.60
2022-10-13T03:35:53.041Z,75.28
2022-10-13T03:36:54.936Z,67.59
2022-10-13T03:37:56.767Z,81.44
2022-10-13T03:38:58.454Z,81.42
2022-10-13T03:40:00.258Z,84.71
2022-10-13T03:41:02.048Z,86.82
2022-10-13T03:42:03.854Z,88.11
2022-10-13T03:43:05.741Z,86.76
2022-10-13T03:44:07.530Z,74.20
2022-10-13T03:45:09.308Z,80.35
2022-10-13T03:46:11.206Z,69.81
2022-10-13T03:47:13.018Z,65.47
2022-10-13T03:48:14.844Z,69.71
2022-10-13T03:49:16.676Z,65.90
2022-10-13T03:50:18.471Z,62.99
2022-10-13T03:51:20.277Z,65.06
2022-10-13T03:52:22.409Z,63.10
2022-10-13T03:53:24.426Z,64.52
2022-10-13T03:54:26.246Z,68.09
2022-10-13T03:55:28.024Z,68.74
2022-10-13T03:56:29.736Z,65.81
2022-10-13T03:57:31.518Z,69.21
2022-10-13T03:58:33.363Z,68.31
2022-10-13T03:59:36.959Z,62.39
2022-10-13T04:00:38.773Z,69.72
2022-10-13T04:01:40.598Z,65.33
2022-10-13T04:02:42.378Z,66.03
2022-10-13T04:03:44.209Z,67.82
2022-10-13T04:04:46.027Z,63.79
2022-10-13T04:05:47.827Z,63.43
2022-10-13T04:06:49.624Z,67.26
2022-10-13T04:07:51.417Z,63.16
2022-10-13T04:08:53.246Z,59.29
2022-10-13T04:09:55.059Z,57.00
2022-10-13T04:10:56.843Z,57.45
2022-10-13T04:11:58.654Z,59.48
2022-10-13T04:13:00.493Z,61.32
2022-10-13T04:14:02.360Z,58.69
2022-10-13T04:15:04.194Z,71.53
2022-10-13T04:16:06.307Z,67.55
2022-10-13T04:17:08.150Z,62.94
2022-10-13T04:18:10.006Z,61.65
2022-10-13T04:19:11.844Z,65.47
2022-10-13T04:20:13.878Z,67.87
2022-10-13T04:21:15.722Z,59.85
2022-10-13T04:22:17.921Z,64.91
2022-10-13T04:23:19.845Z,68.03
2022-10-13T04:24:21.729Z,60.21
2022-10-13T04:25:23.592Z,63.08
2022-10-13T04:26:25.400Z,61.82
2022-10-13T04:27:27.235Z,63.11
2022-10-13T04:28:29.123Z,59.45
2022-10-13T04:29:30.921Z,57.57
2022-10-13T04:30:32.740Z,64.98
2022-10-13T04:31:34.565Z,61.70
2022-10-13T04:32:36.400Z,60.60
2022-10-13T04:33:38.224Z,58.34
2022-10-13T04:34:40.086Z,60.22
2022-10-13T04:35:41.927Z,65.03
2022-10-13T04:36:43.789Z,69.41
2022-10-13T04:37:45.595Z,60.86
2022-10-13T04:38:47.437Z,65.81
2022-10-13T04:39:49.279Z,63.19
2022-10-13T04:40:51.206Z,61.28
2022-10-13T04:41:53.017Z,68.01
2022-10-13T04:42:54.836Z,60.05
2022-10-13T04:43:56.645Z,61.25
2022-10-13T04:44:58.521Z,61.17
2022-10-13T04:46:00.358Z,60.89
2022-10-13T04:47:02.187Z,66.36
2022-10-13T04:48:03.983Z,60.43
2022-10-13T04:49:05.810Z,61.54
2022-10-13T04:50:07.982Z,60.51
2022-10-13T04:51:09.830Z,62.42
2022-10-13T04:52:11.746Z,67.53
2022-10-13T04:53:18.910Z,62.41
2022-10-13T04:54:17.229Z,67.74
2022-10-13T04:55:19.085Z,68.55
2022-10-13T04:56:20.913Z,63.69
2022-10-13T04:57:22.726Z,69.51
2022-10-13T04:58:24.565Z,74.94
2022-10-13T04:59:26.435Z,59.84
2022-10-13T05:00:28.340Z,64.21
2022-10-13T05:01:30.124Z,73.90
2022-10-13T05:02:31.946Z,73.19
2022-10-13T05:03:33.783Z,71.99
2022-10-13T05:04:35.596Z,74.26
2022-10-13T05:05:37.456Z,71.67
2022-10-13T05:06:58.937Z,66.85
2022-10-13T05:07:43.012Z,68.69
2022-10-13T05:08:44.846Z,68.93
2022-10-13T05:09:46.655Z,65.01
2022-10-13T05:10:48.519Z,63.35
2022-10-13T05:11:50.357Z,57.72
2022-10-13T05:12:52.191Z,54.38
2022-10-13T05:13:54.021Z,52.32
2022-10-13T05:14:55.834Z,51.64
2022-10-13T05:15:57.698Z,49.04
2022-10-13T05:16:59.522Z,51.67
2022-10-13T05:18:01.351Z,54.34
2022-10-13T05:19:03.157Z,50.41
2022-10-13T05:20:05.081Z,50.20
2022-10-13T05:21:06.942Z,47.45
2022-10-13T05:22:08.987Z,46.40
2022-10-13T05:23:10.827Z,46.53
2022-10-13T05:24:12.666Z,45.67
2022-10-13T05:25:14.499Z,50.07
2022-10-13T05:26:16.348Z,43.19
2022-10-13T05:27:18.178Z,41.69
2022-10-13T05:28:20.034Z,44.43
2022-10-13T05:29:21.816Z,44.35
2022-10-13T05:30:23.641Z,41.48
2022-10-13T05:31:25.508Z,37.47
2022-10-13T05:32:27.324Z,40.27
2022-10-13T05:33:29.147Z,40.51
2022-10-13T05:34:30.972Z,37.19
2022-10-13T05:35:32.839Z,37.61
2022-10-13T05:36:34.710Z,36.16
2022-10-13T05:37:36.748Z,42.24
2022-10-13T05:38:38.598Z,34.63
2022-10-13T05:39:40.428Z,35.37
2022-10-13T05:40:42.238Z,33.08
2022-10-13T05:41:44.100Z,35.04
2022-10-13T05:42:45.930Z,31.27
2022-10-13T05:43:47.744Z,30.42
2022-10-13T05:44:49.566Z,30.61
2022-10-13T05:45:51.382Z,33.47
2022-10-13T05:46:53.247Z,30.47
2022-10-13T05:47:55.104Z,32.51
2022-10-13T05:48:56.912Z,26.97
2022-10-13T05:49:58.731Z,37.47
2022-10-13T05:51:00.573Z,32.87
2022-10-13T05:52:02.430Z,18.70
2022-10-13T05:53:04.309Z,36.37
2022-10-13T05:54:06.137Z,31.64
2022-10-13T05:55:07.962Z,29.25
2022-10-13T05:56:10.102Z,35.63
2022-10-13T05:57:11.938Z,31.31
2022-10-13T05:58:13.760Z,33.97
2022-10-13T05:59:15.584Z,45.71
2022-10-13T06:00:17.425Z,34.11
2022-10-13T06:01:19.215Z,32.76
2022-10-13T06:02:21.468Z,29.90
2022-10-13T06:03:23.501Z,31.68
2022-10-13T06:04:25.322Z,37.51
2022-10-13T06:05:27.138Z,38.51
2022-10-13T06:06:31.484Z,34.69
2022-10-13T06:07:32.688Z,37.91
2022-10-13T06:08:34.517Z,33.56
2022-10-13T06:09:36.339Z,33.01
2022-10-13T06:10:38.156Z,36.69
2022-10-13T06:11:40.005Z,31.51
2022-10-13T06:12:41.988Z,38.76
2022-10-13T06:13:43.786Z,33.48
2022-10-13T06:14:45.614Z,36.31
2022-10-13T06:15:47.438Z,45.69
2022-10-13T06:16:49.436Z,37.09
2022-10-13T06:17:51.285Z,32.31
2022-10-13T06:18:53.121Z,38.07
2022-10-13T06:19:54.961Z,35.27
2022-10-13T06:20:56.768Z,35.91
2022-10-13T06:22:03.270Z,35.14
2022-10-13T06:23:02.248Z,31.16
2022-10-13T06:24:04.165Z,32.14
2022-10-13T06:25:05.983Z,34.06
2022-10-13T06:26:07.870Z,40.78
2022-10-13T06:27:09.668Z,36.47
2022-10-13T06:28:11.645Z,32.15
2022-10-13T06:29:13.650Z,34.11
2022-10-13T06:30:15.917Z,34.53
2022-10-13T06:31:17.694Z,30.22
2022-10-13T06:32:19.773Z,31.73
2022-10-13T06:33:21.661Z,31.57
2022-10-13T06:34:23.460Z,35.46
2022-10-13T06:35:25.158Z,38.66
2022-10-13T06:36:26.956Z,29.59
2022-10-13T06:37:28.752Z,27.19
2022-10-13T06:38:30.595Z,35.99
2022-10-13T06:39:32.435Z,30.55
2022-10-13T06:40:34.171Z,39.60
2022-10-13T06:41:35.864Z,41.29
2022-10-13T06:42:37.669Z,35.68
2022-10-13T06:43:40.568Z,40.89
2022-10-13T06:44:42.520Z,29.29
2022-10-13T06:45:44.304Z,37.26
2022-10-13T06:46:46.095Z,39.45
2022-10-13T06:47:47.922Z,28.27
2022-10-13T06:48:49.770Z,25.91
2022-10-13T06:49:51.582Z,36.81
2022-10-13T06:50:53.481Z,37.57
2022-10-13T06:51:55.270Z,38.89
2022-10-13T06:52:57.074Z,44.94
2022-10-13T06:53:58.917Z,48.60
2022-10-13T06:55:00.893Z,34.23
2022-10-13T06:56:02.727Z,39.53
2022-10-13T06:57:04.622Z,37.87
2022-10-13T06:58:06.451Z,43.35
2022-10-13T06:59:08.270Z,45.54
2022-10-13T07:00:10.299Z,46.48
2022-10-13T07:01:12.191Z,43.34
2022-10-13T07:02:15.851Z,40.55
2022-10-13T07:03:17.641Z,42.27
2022-10-13T07:04:19.461Z,40.13
2022-10-13T07:05:21.259Z,41.54
2022-10-13T07:06:23.068Z,41.94
2022-10-13T07:07:24.898Z,45.22
2022-10-13T07:08:26.682Z,39.79
2022-10-13T07:09:28.543Z,41.93
2022-10-13T07:10:30.368Z,42.04
2022-10-13T07:11:32.269Z,42.67
2022-10-13T07:12:34.068Z,40.50
2022-10-13T07:13:37.123Z,41.87
2022-10-13T07:14:41.676Z,62.33
2022-10-13T07:15:43.111Z,45.19
2022-10-13T07:16:44.820Z,44.85
2022-10-13T07:17:46.619Z,44.80
2022-10-13T07:18:48.309Z,45.71
2022-10-13T07:19:52.033Z,44.85
2022-10-13T07:20:54.845Z,46.00
2022-10-13T07:21:56.625Z,45.44
2022-10-13T07:22:58.333Z,45.09
2022-10-13T07:24:00.040Z,45.15
2022-10-13T07:25:01.882Z,43.85
2022-10-13T07:26:03.814Z,49.14
2022-10-13T07:27:07.943Z,39.06
2022-10-13T07:28:09.203Z,28.35
2022-10-13T07:29:10.989Z,50.21
2022-10-13T07:30:12.940Z,49.27
2022-10-13T07:31:14.727Z,50.30
2022-10-13T07:32:16.511Z,49.17
2022-10-13T07:33:18.310Z,44.11
2022-10-13T07:34:20.110Z,36.53
2022-10-13T07:35:23.179Z,31.57
2022-10-13T07:36:25.501Z,33.72
2022-10-13T07:37:27.281Z,33.54
2022-10-13T07:38:28.978Z,33.07
2022-10-13T07:39:30.769Z,38.13
2022-10-13T07:40:32.585Z,40.21
2022-10-13T07:41:34.414Z,34.33
2022-10-13T07:42:36.221Z,24.14
2022-10-13T07:43:37.905Z,18.59
2022-10-13T07:44:39.706Z,17.03
2022-10-13T07:45:41.533Z,19.11
2022-10-13T07:46:43.318Z,23.70
2022-10-13T07:47:45.020Z,22.00
2022-10-13T07:48:46.848Z,22.91
2022-10-13T07:49:48.638Z,22.19
2022-10-13T07:50:50.452Z,17.90
2022-10-13T07:51:52.144Z,16.76
2022-10-13T07:52:53.942Z,19.18
2022-10-13T07:53:55.639Z,15.95
2022-10-13T07:54:57.364Z,18.96
2022-10-13T07:55:59.185Z,16.49
2022-10-13T07:57:00.888Z,15.57
2022-10-13T07:58:02.584Z,19.22
2022-10-13T07:59:04.380Z,22.35
2022-10-13T08:00:06.192Z,19.66
2022-10-13T08:01:07.943Z,19.17
2022-10-13T08:02:09.741Z,25.96
2022-10-13T08:03:11.423Z,20.36
2022-10-13T08:04:13.248Z,23.03
2022-10-13T08:05:15.033Z,24.77
2022-10-13T08:06:16.891Z,25.51
2022-10-13T08:07:18.980Z,19.97
2022-10-13T08:08:20.916Z,18.67
2022-10-13T08:09:23.316Z,18.87
2022-10-13T08:10:25.114Z,21.06
2022-10-13T08:11:26.872Z,19.72
2022-10-13T08:12:28.826Z,16.49
2022-10-13T08:13:30.538Z,18.33
2022-10-13T08:14:32.422Z,21.23
2022-10-13T08:15:34.483Z,17.84
2022-10-13T08:16:36.223Z,17.46
2022-10-13T08:17:38.000Z,16.91
2022-10-13T08:18:39.683Z,15.13
2022-10-13T08:19:41.486Z,15.95
2022-10-13T08:20:43.878Z,20.41
2022-10-13T08:22:07.797Z,21.30
2022-10-13T08:23:07.581Z,22.81
2022-10-13T08:24:09.272Z,22.63
2022-10-13T08:25:11.087Z,23.86
2022-10-13T08:26:12.985Z,25.31
2022-10-13T08:27:14.892Z,23.39
2022-10-13T08:28:16.711Z,26.36
2022-10-13T08:29:23.359Z,23.43
2022-10-13T08:30:22.375Z,24.50
2022-10-13T08:31:24.458Z,26.63
2022-10-13T08:32:26.458Z,22.21
2022-10-13T08:33:28.257Z,21.71
2022-10-13T08:34:30.100Z,18.74
2022-10-13T08:35:34.834Z,15.63
2022-10-13T08:36:35.505Z,21.16
2022-10-13T08:37:37.392Z,28.99
2022-10-13T08:38:39.225Z,21.39
2022-10-13T08:39:41.039Z,20.24
2022-10-13T08:40:42.884Z,18.98
2022-10-13T08:41:44.695Z,18.26
2022-10-13T08:42:46.696Z,19.61
2022-10-13T08:44:24.755Z,15.55
2022-10-13T08:45:55.894Z,25.28
2022-10-13T08:46:57.764Z,16.49
2022-10-13T08:47:59.639Z,16.25
2022-10-13T08:49:01.486Z,20.57
2022-10-13T08:50:03.314Z,17.61
2022-10-13T08:51:05.166Z,18.43
2022-10-13T08:52:07.010Z,17.63
2022-10-13T08:53:08.878Z,18.46
2022-10-13T08:54:10.720Z,19.37
2022-10-13T08:55:12.531Z,20.09
2022-10-13T08:56:14.644Z,19.25
2022-10-13T08:57:16.883Z,20.02
2022-10-13T08:58:19.263Z,17.70
2022-10-13T08:59:21.661Z,16.77
2022-10-13T09:00:23.815Z,19.07
2022-10-13T09:01:25.997Z,17.13
2022-10-13T09:02:28.170Z,15.56
2022-10-13T09:03:30.423Z,16.10
2022-10-13T09:04:32.569Z,16.31
2022-10-13T09:05:34.598Z,19.08
2022-10-13T09:06:36.681Z,17.46
2022-10-13T09:07:41.608Z,12.36
2022-10-13T09:08:43.965Z,8.86
2022-10-13T09:09:46.136Z,10.89
2022-10-13T09:10:48.277Z,15.97
2022-10-13T09:11:53.182Z,20.18
2022-10-13T09:12:55.370Z,21.00
2022-10-13T09:13:57.646Z,15.89
2022-10-13T09:14:59.861Z,11.58
2022-10-13T09:16:02.024Z,13.32
2022-10-13T09:17:04.210Z,13.69
2022-10-13T09:18:06.472Z,12.39
2022-10-13T09:19:08.718Z,21.21
2022-10-13T09:20:12.183Z,15.56
2022-10-13T09:21:14.346Z,12.59
2022-10-13T09:22:16.646Z,11.35
2022-10-13T09:23:18.948Z,10.96
2022-10-13T09:24:22.267Z,12.88
2022-10-13T09:25:24.430Z,11.39
2022-10-13T09:26:26.601Z,13.97
2022-10-13T09:27:28.747Z,11.79
2022-10-13T09:28:30.977Z,13.59
2022-10-13T09:29:33.251Z,11.22
2022-10-13T09:30:35.436Z,9.87
2022-10-13T09:31:37.571Z,11.81
2022-10-13T09:32:39.726Z,10.85
2022-10-13T09:33:41.850Z,9.17
2022-10-13T09:34:44.053Z,10.15
2022-10-13T09:35:46.122Z,12.31
2022-10-13T09:36:48.278Z,11.07
2022-10-13T09:37:50.473Z,13.21
2022-10-13T09:38:52.627Z,12.07
2022-10-13T09:39:54.864Z,16.43
2022-10-13T09:40:57.013Z,12.95
2022-10-13T09:41:59.158Z,12.61
2022-10-13T09:43:01.295Z,14.25
2022-10-13T09:44:03.431Z,11.92
2022-10-13T09:45:05.704Z,11.91
2022-10-13T09:46:08.058Z,12.57
2022-10-13T09:47:10.250Z,14.93
2022-10-13T09:48:12.407Z,14.55
2022-10-13T09:49:14.601Z,15.59
2022-10-13T09:50:16.832Z,18.73
2022-10-13T09:51:18.969Z,19.11
2022-10-13T09:52:21.255Z,12.81
2022-10-13T09:53:23.484Z,18.11
2022-10-13T09:54:25.633Z,13.61
2022-10-13T09:55:32.428Z,11.05
2022-10-13T09:56:31.603Z,11.98
2022-10-13T09:57:33.764Z,54.15
2022-10-13T09:58:35.913Z,50.47
2022-10-13T09:59:38.115Z,38.02
2022-10-13T10:00:40.264Z,29.40
2022-10-13T10:01:42.457Z,13.84
2022-10-13T10:02:44.641Z,13.45
2022-10-13T10:03:48.590Z,17.53
2022-10-13T10:04:52.811Z,36.94
2022-10-13T10:05:54.731Z,20.19
2022-10-13T10:06:56.982Z,17.25
2022-10-13T10:07:59.095Z,15.00
2022-10-13T10:09:03.767Z,15.93
2022-10-13T10:10:05.123Z,11.75
2022-10-13T10:11:07.277Z,23.73
2022-10-13T10:12:09.416Z,23.69
2022-10-13T10:13:11.565Z,20.99
2022-10-13T10:14:13.723Z,10.38
2022-10-13T10:15:15.779Z,8.65
2022-10-13T10:16:17.923Z,10.70
2022-10-13T10:17:20.323Z,11.64
2022-10-13T10:18:22.568Z,12.67
2022-10-13T10:19:24.712Z,12.62
2022-10-13T10:20:26.869Z,13.63
2022-10-13T10:21:29.109Z,10.78
2022-10-13T10:22:31.217Z,10.91
2022-10-13T10:23:33.345Z,17.70
2022-10-13T10:24:35.431Z,16.99
2022-10-13T10:25:37.600Z,14.25
2022-10-13T10:26:39.829Z,9.81
2022-10-13T10:27:43.741Z,14.05
2022-10-13T10:28:45.925Z,13.20
2022-10-13T10:29:48.000Z,10.25
2022-10-13T10:30:50.145Z,10.41
2022-10-13T10:31:52.363Z,8.86
2022-10-13T10:32:54.614Z,7.94
2022-10-13T10:33:56.770Z,10.01
2022-10-13T10:34:58.600Z,8.56
2022-10-13T10:36:00.444Z,10.91
2022-10-13T10:37:02.361Z,10.11
2022-10-13T10:38:04.180Z,10.03
2022-10-13T10:39:06.041Z,11.30
2022-10-13T10:40:07.976Z,9.07
2022-10-13T10:41:09.817Z,10.39
2022-10-13T10:42:11.694Z,9.97
2022-10-13T10:43:13.571Z,7.31
2022-10-13T10:44:15.442Z,9.29
2022-10-13T10:45:17.285Z,6.98
2022-10-13T10:46:19.145Z,11.83
2022-10-13T10:47:23.332Z,7.66
2022-10-13T10:48:24.749Z,10.14
2022-10-13T10:49:26.561Z,7.58
2022-10-13T10:50:28.335Z,7.49
2022-10-13T10:51:30.052Z,10.39
2022-10-13T10:52:31.913Z,9.07
2022-10-13T10:53:33.708Z,11.72
2022-10-13T10:54:35.400Z,10.14
2022-10-13T10:55:37.094Z,19.19
2022-10-13T10:56:38.800Z,21.53
2022-10-13T10:57:40.643Z,22.89
2022-10-13T10:58:42.475Z,13.45
2022-10-13T10:59:44.182Z,22.60
2022-10-13T11:00:45.886Z,17.71
2022-10-13T11:01:47.701Z,14.81
2022-10-13T11:02:49.504Z,13.59
2022-10-13T11:03:51.339Z,13.93
2022-10-13T11:04:53.037Z,14.20
2022-10-13T11:05:54.845Z,11.97
2022-10-13T11:06:56.638Z,9.14
2022-10-13T11:07:58.464Z,15.27
2022-10-13T11:09:00.153Z,13.95
2022-10-13T11:10:01.909Z,28.97
2022-10-13T11:11:03.671Z,46.66
2022-10-13T11:12:05.373Z,44.09
2022-10-13T11:13:07.122Z,28.47
2022-10-13T11:14:08.818Z,21.51
2022-10-13T11:15:10.512Z,18.91
2022-10-13T11:16:12.507Z,18.71
2022-10-13T11:17:14.271Z,13.03
2022-10-13T11:18:19.769Z,13.15
2022-10-13T11:19:19.738Z,6.04
2022-10-13T11:20:21.527Z,10.80
2022-10-13T11:21:23.309Z,8.39
2022-10-13T11:22:25.160Z,8.79
2022-10-13T11:23:26.962Z,9.40
2022-10-13T11:24:28.793Z,9.86
2022-10-13T11:25:30.598Z,22.73
2022-10-13T11:26:32.396Z,14.59
2022-10-13T11:27:34.193Z,16.86
2022-10-13T11:28:36.097Z,9.80
2022-10-13T11:29:37.849Z,17.19
2022-10-13T11:30:39.675Z,10.03
2022-10-13T11:31:41.469Z,10.65
2022-10-13T11:32:43.171Z,11.68
2022-10-13T11:33:45.024Z,11.74
2022-10-13T11:34:46.862Z,12.26
2022-10-13T11:35:48.654Z,8.84
2022-10-13T11:36:50.458Z,9.30
2022-10-13T11:38:06.041Z,7.58
2022-10-13T11:38:55.979Z,10.14
2022-10-13T11:39:57.787Z,10.35
2022-10-13T11:40:59.597Z,11.45
2022-10-13T11:42:01.403Z,12.21
2022-10-13T11:43:05.167Z,10.73
2022-10-13T11:44:06.857Z,11.41
2022-10-13T11:45:08.659Z,9.16
2022-10-13T11:46:10.749Z,8.27
2022-10-13T11:47:12.557Z,10.79
2022-10-13T11:48:14.378Z,6.65
2022-10-13T11:49:16.208Z,6.31
2022-10-13T11:50:18.204Z,7.85
2022-10-13T11:51:19.993Z,8.04
2022-10-13T11:52:22.366Z,12.99
2022-10-13T11:53:24.400Z,16.39
2022-10-13T11:54:26.261Z,11.40
2022-10-13T11:55:28.046Z,15.52
2022-10-13T11:56:29.846Z,23.19
2022-10-13T11:57:31.648Z,22.35
2022-10-13T11:58:33.450Z,19.29
2022-10-13T11:59:35.289Z,27.60
2022-10-13T12:00:37.103Z,18.70
2022-10-13T12:01:38.891Z,16.39
2022-10-13T12:02:40.749Z,22.17
2022-10-13T12:03:42.589Z,22.51
2022-10-13T12:04:46.750Z,17.66
2022-10-13T12:05:48.003Z,13.16
2022-10-13T12:06:49.813Z,14.65
2022-10-13T12:07:51.627Z,8.90
2022-10-13T12:08:53.420Z,8.77
2022-10-13T12:09:55.262Z,9.04
2022-10-13T12:10:57.114Z,13.29
2022-10-13T12:11:58.888Z,10.75
2022-10-13T12:13:00.694Z,9.96
2022-10-13T12:14:02.499Z,10.11
2022-10-13T12:15:06.947Z,12.75
2022-10-13T12:16:08.670Z,9.69
2022-10-13T12:17:13.986Z,8.99
2022-10-13T12:18:14.085Z,10.28
2022-10-13T12:19:15.881Z,8.38
2022-10-13T12:20:17.703Z,7.59
2022-10-13T12:21:19.580Z,8.86
2022-10-13T12:22:21.391Z,11.66
2022-10-13T12:23:23.181Z,12.13
2022-10-13T12:24:25.086Z,10.75
2022-10-13T12:25:26.921Z,11.97
2022-10-13T12:26:28.763Z,11.86
2022-10-13T12:27:30.523Z,10.04
2022-10-13T12:28:32.379Z,8.85
2022-10-13T12:29:37.353Z,11.03
2022-10-13T12:30:37.777Z,11.37
2022-10-13T12:31:39.565Z,11.83
2022-10-13T12:32:41.268Z,8.42
2022-10-13T12:33:43.058Z,7.17
2022-10-13T12:34:44.878Z,8.39
2022-10-13T12:35:46.702Z,8.37
2022-10-13T12:36:48.582Z,8.15
2022-10-13T12:37:50.336Z,9.66
2022-10-13T12:38:52.131Z,12.06
2022-10-13T12:39:53.921Z,16.49
2022-10-13T12:40:55.655Z,13.31
2022-10-13T12:41:57.342Z,12.55
2022-10-13T12:42:59.043Z,9.58
2022-10-13T12:44:03.964Z,9.79
2022-10-13T12:45:04.456Z,8.97
2022-10-13T12:46:06.370Z,11.57
2022-10-13T12:47:08.078Z,10.24
2022-10-13T12:48:09.870Z,8.86
2022-10-13T12:49:11.725Z,11.20
2022-10-13T12:50:14.185Z,11.29
2022-10-13T12:51:16.025Z,14.23
2022-10-13T12:52:18.130Z,9.64
2022-10-13T12:53:20.063Z,10.60
2022-10-13T12:54:21.860Z,14.29
2022-10-13T12:55:23.653Z,13.73
2022-10-13T12:56:25.527Z,12.07
2022-10-13T12:57:27.310Z,14.53
2022-10-13T12:58:29.113Z,9.95
2022-10-13T12:59:30.918Z,10.85
2022-10-13T13:00:33.693Z,9.37
2022-10-13T13:01:35.465Z,11.28
2022-10-13T13:02:37.279Z,11.84
2022-10-13T13:03:39.102Z,11.67
2022-10-13T13:04:40.921Z,9.70
2022-10-13T13:05:42.724Z,11.53
2022-10-13T13:06:44.591Z,13.65
2022-10-13T13:07:46.411Z,12.14
2022-10-13T13:08:48.235Z,12.11
2022-10-13T13:09:50.094Z,11.36
2022-10-13T13:10:51.914Z,12.16
2022-10-13T13:11:53.860Z,9.83
2022-10-13T13:12:55.686Z,12.93
2022-10-13T13:13:57.511Z,11.89
2022-10-13T13:14:59.317Z,15.21
2022-10-13T13:16:01.132Z,11.45
2022-10-13T13:17:03.007Z,10.14
2022-10-13T13:18:04.834Z,9.47
2022-10-13T13:19:06.834Z,7.21
2022-10-13T13:20:09.062Z,9.99
2022-10-13T13:21:10.881Z,9.34